Time;durP1;ratioP1;P1;durP2;ratioP2;P2;SDS_P1;SDS_P2;PMS_P1;PMS_P2;Temp;Humidity;BMP_temperature;BMP_pressure;BME280_temperature;BME280_humidity;BME280_pressure;Samples;Min_cycle;Max_cycle;Signal;HPM_P1;HPM_P2
2021/09/26 00:02:03;;;;;;;15.57;11.70;;;;;;;;;;5031763;28;20407;-46
2021/09/26 00:04:29;;;;;;;14.43;10.17;;;;;;;;;;5032315;28;20417;-46
2021/09/26 00:06:55;;;;;;;11.27;9.63;;;;;;;;;;5031966;28;20385;-46
2021/09/26 00:09:21;;;;;;;12.50;10.30;;;;;;;;;;5032035;28;20444;-47
2021/09/26 00:11:47;;;;;;;14.67;10.57;;;;;;;;;;5031709;28;20378;-49
2021/09/26 00:14:13;;;;;;;16.97;10.43;;;;;;;;;;5031806;28;20461;-46
2021/09/26 00:16:39;;;;;;;14.50;11.37;;;;;;;;;;5031854;28;20461;-49
2021/09/26 00:19:05;;;;;;;11.30;10.13;;;;;;;;;;5031911;28;20378;-49
2021/09/26 00:21:31;;;;;;;13.80;10.30;;;;;;;;;;5032069;28;20430;-48
2021/09/26 00:23:57;;;;;;;12.97;10.77;;;;;;;;;;5031503;28;20908;-46
2021/09/26 00:26:23;;;;;;;12.70;10.50;;;;;;;;;;5031805;28;20406;-46
2021/09/26 00:28:49;;;;;;;11.10;9.93;;;;;;;;;;5031891;28;20411;-46
2021/09/26 00:31:15;;;;;;;17.00;10.23;;;;;;;;;;5031747;28;20415;-47
2021/09/26 00:33:41;;;;;;;12.93;10.40;;;;;;;;;;5031371;28;20461;-46
2021/09/26 00:36:07;;;;;;;12.13;10.60;;;;;;;;;;5031737;28;20485;-46
2021/09/26 00:38:33;;;;;;;13.83;10.20;;;;;;;;;;5031763;28;20384;-46
2021/09/26 00:40:59;;;;;;;11.10;9.77;;;;;;;;;;5031621;28;20394;-47
2021/09/26 00:43:25;;;;;;;14.00;10.03;;;;;;;;;;5031444;28;20393;-46
2021/09/26 00:45:51;;;;;;;12.30;10.77;;;;;;;;;;5032132;28;20402;-46
2021/09/26 00:48:18;;;;;;;11.77;9.70;;;;;;;;;;5035796;28;20381;-47
2021/09/26 00:50:44;;;;;;;11.90;10.33;;;;;;;;;;5035599;28;20381;-47
2021/09/26 00:53:10;;;;;;;14.90;10.90;;;;;;;;;;5035114;28;20984;-46
2021/09/26 00:55:36;;;;;;;14.03;11.20;;;;;;;;;;5035529;28;20403;-46
2021/09/26 00:58:02;;;;;;;12.70;10.20;;;;;;;;;;5035582;28;20373;-47
2021/09/26 01:00:28;;;;;;;13.90;10.47;;;;;;;;;;5035439;28;20779;-47
2021/09/26 01:02:54;;;;;;;10.87;9.37;;;;;;;;;;5034216;28;20435;-46
2021/09/26 01:05:23;;;;;;;14.37;10.40;;;;;;;;;;5034941;28;20435;-47
2021/09/26 01:08:08;;;;;;;13.03;10.00;;;;;;;;;;5035131;28;20861;-46
2021/09/26 01:10:52;;;;;;;16.13;9.90;;;;;;;;;;5035241;28;21135;-46
2021/09/26 01:13:24;;;;;;;11.17;10.00;;;;;;;;;;5034690;28;20461;-47
2021/09/26 01:15:50;;;;;;;15.13;10.13;;;;;;;;;;5034964;28;20425;-47
2021/09/26 01:18:19;;;;;;;12.70;10.13;;;;;;;;;;5035013;28;20373;-47
2021/09/26 01:21:02;;;;;;;12.90;10.53;;;;;;;;;;5034870;28;20456;-47
2021/09/26 01:23:36;;;;;;;12.13;10.70;;;;;;;;;;5034802;28;20422;-47
2021/09/26 01:26:20;;;;;;;12.93;9.93;;;;;;;;;;5034977;28;20414;-47
2021/09/26 01:28:58;;;;;;;13.97;10.17;;;;;;;;;;5034976;28;20401;-47
2021/09/26 01:31:41;;;;;;;18.07;12.27;;;;;;;;;;5034865;28;20456;-47
2021/09/26 01:34:21;;;;;;;14.73;9.87;;;;;;;;;;5034530;28;20498;-46
2021/09/26 01:36:52;;;;;;;12.40;10.03;;;;;;;;;;5034838;28;20452;-47
2021/09/26 01:39:27;;;;;;;13.30;11.07;;;;;;;;;;5034706;28;20395;-46
2021/09/26 01:41:56;;;;;;;20.03;10.70;;;;;;;;;;5034302;28;20377;-47
2021/09/26 01:44:45;;;;;;;16.77;11.87;;;;;;;;;;5034610;28;20499;-47
2021/09/26 01:47:14;;;;;;;9.90;8.70;;;;;;;;;;5034095;28;20389;-47
2021/09/26 01:49:42;;;;;;;10.07;8.27;;;;;;;;;;5034541;28;20471;-47
2021/09/26 01:52:15;;;;;;;8.70;7.73;;;;;;;;;;5034130;28;20511;-47
2021/09/26 01:54:42;;;;;;;9.93;8.63;;;;;;;;;;5034613;28;20429;-46
2021/09/26 01:57:08;;;;;;;10.63;9.53;;;;;;;;;;5034465;28;20422;-47
2021/09/26 01:59:35;;;;;;;14.30;9.70;;;;;;;;;;5033795;28;20403;-46
2021/09/26 02:02:01;;;;;;;10.80;7.83;;;;;;;;;;5033988;28;20406;-46
2021/09/26 02:04:28;;;;;;;11.97;9.60;;;;;;;;;;5034201;28;20408;-46
2021/09/26 02:06:55;;;;;;;10.63;8.40;;;;;;;;;;5034209;28;20417;-47
2021/09/26 02:09:21;;;;;;;9.40;8.50;;;;;;;;;;5034239;28;20387;-46
2021/09/26 02:11:47;;;;;;;9.40;8.20;;;;;;;;;;5033863;28;20495;-47
2021/09/26 02:14:14;;;;;;;12.83;10.67;;;;;;;;;;5034039;28;20912;-46
2021/09/26 02:16:40;;;;;;;8.43;7.03;;;;;;;;;;5033988;28;20451;-47
2021/09/26 02:19:07;;;;;;;6.90;6.30;;;;;;;;;;5033919;28;20396;-47
2021/09/26 02:21:33;;;;;;;8.37;5.90;;;;;;;;;;5033894;28;20422;-48
2021/09/26 02:24:00;;;;;;;9.90;7.20;;;;;;;;;;5033661;28;20430;-46
2021/09/26 02:26:26;;;;;;;7.40;6.70;;;;;;;;;;5034141;28;20432;-47
2021/09/26 02:28:52;;;;;;;7.20;6.10;;;;;;;;;;5033867;28;20858;-46
2021/09/26 02:31:19;;;;;;;8.97;7.10;;;;;;;;;;5033704;28;20397;-47
2021/09/26 02:33:45;;;;;;;9.00;6.67;;;;;;;;;;5033333;28;20972;-46
2021/09/26 02:36:12;;;;;;;7.17;5.80;;;;;;;;;;5033715;28;20368;-46
2021/09/26 02:38:38;;;;;;;7.43;6.53;;;;;;;;;;5033594;28;20851;-48
2021/09/26 02:41:21;;;;;;;7.43;6.70;;;;;;;;;;5033558;28;20431;-46
2021/09/26 02:43:53;;;;;;;8.67;7.20;;;;;;;;;;5033252;28;20424;-47
2021/09/26 02:46:23;;;;;;;10.77;8.40;;;;;;;;;;5033429;28;20367;-47
2021/09/26 02:48:49;;;;;;;8.83;6.83;;;;;;;;;;5033528;28;20382;-46
2021/09/26 02:51:15;;;;;;;9.30;7.50;;;;;;;;;;5033346;28;20858;-47
2021/09/26 02:53:42;;;;;;;9.13;7.57;;;;;;;;;;5033017;28;20438;-47
2021/09/26 02:56:08;;;;;;;9.20;6.90;;;;;;;;;;5033869;28;20378;-47
2021/09/26 02:58:37;;;;;;;8.17;7.37;;;;;;;;;;5033670;28;20382;-47
2021/09/26 03:01:03;;;;;;;10.00;7.20;;;;;;;;;;5033078;28;20802;-49
2021/09/26 03:03:29;;;;;;;7.03;6.23;;;;;;;;;;5032902;28;20399;-47
2021/09/26 03:05:55;;;;;;;8.80;6.37;;;;;;;;;;5033284;28;20436;-46
2021/09/26 03:08:22;;;;;;;7.20;5.80;;;;;;;;;;5033093;28;20492;-47
2021/09/26 03:10:59;;;;;;;6.00;5.17;;;;;;;;;;5031985;28;20439;-46
2021/09/26 03:13:26;;;;;;;11.07;9.13;;;;;;;;;;5032705;28;20485;-47
2021/09/26 03:15:52;;;;;;;11.13;7.10;;;;;;;;;;5032841;28;20416;-46
2021/09/26 03:18:18;;;;;;;11.37;5.90;;;;;;;;;;5032967;28;20380;-49
2021/09/26 03:20:44;;;;;;;6.53;5.93;;;;;;;;;;5032903;28;20749;-49
2021/09/26 03:23:10;;;;;;;9.80;8.47;;;;;;;;;;5032453;28;20425;-47
2021/09/26 03:25:36;;;;;;;9.47;6.50;;;;;;;;;;5032676;28;20380;-47
2021/09/26 03:28:02;;;;;;;8.93;5.37;;;;;;;;;;5032672;28;20448;-47
2021/09/26 03:30:28;;;;;;;7.90;6.80;;;;;;;;;;5032659;28;20889;-47
2021/09/26 03:32:54;;;;;;;5.63;5.23;;;;;;;;;;5032194;28;20429;-47
2021/09/26 03:35:21;;;;;;;5.87;5.00;;;;;;;;;;5032543;28;20391;-47
2021/09/26 03:37:46;;;;;;;6.10;5.50;;;;;;;;;;5032702;28;20845;-46
2021/09/26 03:40:13;;;;;;;6.87;5.53;;;;;;;;;;5032485;28;20376;-46
2021/09/26 03:42:39;;;;;;;7.00;6.30;;;;;;;;;;5032182;28;20432;-46
2021/09/26 03:45:06;;;;;;;6.83;6.07;;;;;;;;;;5032482;28;20884;-47
2021/09/26 03:47:32;;;;;;;9.50;5.57;;;;;;;;;;5032344;28;20445;-48
2021/09/26 03:49:58;;;;;;;6.97;5.60;;;;;;;;;;5032363;28;20384;-50
2021/09/26 03:52:24;;;;;;;8.80;6.40;;;;;;;;;;5031988;28;20422;-49
2021/09/26 03:54:51;;;;;;;6.30;5.80;;;;;;;;;;5032132;28;20449;-49
2021/09/26 03:57:20;;;;;;;6.27;5.60;;;;;;;;;;5032228;28;20482;-47
2021/09/26 03:59:48;;;;;;;9.37;6.20;;;;;;;;;;5032164;28;20853;-47
2021/09/26 04:02:14;;;;;;;6.37;5.87;;;;;;;;;;5031838;28;20925;-48
2021/09/26 04:04:43;;;;;;;8.37;6.40;;;;;;;;;;5032197;28;20432;-47
2021/09/26 04:07:12;;;;;;;6.50;5.63;;;;;;;;;;5032133;28;20391;-48
2021/09/26 04:09:38;;;;;;;6.57;5.83;;;;;;;;;;5031982;28;20373;-46
2021/09/26 04:12:04;;;;;;;8.03;6.23;;;;;;;;;;5031690;28;20442;-47
2021/09/26 04:14:30;;;;;;;6.33;5.73;;;;;;;;;;5031731;28;20450;-49
2021/09/26 04:16:56;;;;;;;7.17;6.47;;;;;;;;;;5032027;28;20501;-49
2021/09/26 04:19:22;;;;;;;11.73;5.50;;;;;;;;;;5032013;28;20376;-47
2021/09/26 04:21:50;;;;;;;7.10;5.80;;;;;;;;;;5031262;28;20380;-47
2021/09/26 04:24:20;;;;;;;5.83;5.33;;;;;;;;;;5031914;28;20416;-50
2021/09/26 04:26:46;;;;;;;6.53;5.93;;;;;;;;;;5031961;28;20402;-47
2021/09/26 04:29:12;;;;;;;5.80;5.30;;;;;;;;;;5031836;28;20377;-47
2021/09/26 04:31:38;;;;;;;7.07;5.40;;;;;;;;;;5031719;28;20435;-51
2021/09/26 04:34:04;;;;;;;6.50;5.27;;;;;;;;;;5031534;28;20870;-46
2021/09/26 04:36:30;;;;;;;6.27;5.67;;;;;;;;;;5031663;28;20387;-47
2021/09/26 04:38:56;;;;;;;6.27;5.73;;;;;;;;;;5032455;28;20469;-46
2021/09/26 04:41:22;;;;;;;8.20;6.00;;;;;;;;;;5031812;28;20377;-46
2021/09/26 04:43:48;;;;;;;6.10;5.60;;;;;;;;;;5031409;28;20400;-47
2021/09/26 04:46:14;;;;;;;6.77;6.13;;;;;;;;;;5031671;28;20492;-47
2021/09/26 04:48:40;;;;;;;6.00;5.50;;;;;;;;;;5031594;28;20500;-46
2021/09/26 04:51:06;;;;;;;7.40;6.23;;;;;;;;;;5031447;28;20399;-47
2021/09/26 04:53:32;;;;;;;7.77;5.87;;;;;;;;;;5031205;28;20490;-48
2021/09/26 04:55:58;;;;;;;6.30;5.80;;;;;;;;;;5031610;28;20460;-49
2021/09/26 04:58:24;;;;;;;10.30;5.93;;;;;;;;;;5031618;28;20861;-45
2021/09/26 05:00:52;;;;;;;6.60;6.00;;;;;;;;;;5031490;28;20409;-46
2021/09/26 05:03:18;;;;;;;6.20;5.70;;;;;;;;;;5031185;28;20991;-46
2021/09/26 05:05:44;;;;;;;6.23;5.63;;;;;;;;;;5031976;28;20380;-46
2021/09/26 05:08:10;;;;;;;5.50;5.10;;;;;;;;;;5031441;28;20416;-46
2021/09/26 05:10:36;;;;;;;7.80;5.70;;;;;;;;;;5031700;28;20388;-47
2021/09/26 05:13:02;;;;;;;8.40;5.60;;;;;;;;;;5031089;28;20438;-46
2021/09/26 05:15:28;;;;;;;8.20;6.13;;;;;;;;;;5031296;28;20393;-46
2021/09/26 05:17:54;;;;;;;6.50;5.90;;;;;;;;;;5031405;28;20409;-47
2021/09/26 05:20:20;;;;;;;6.23;5.63;;;;;;;;;;5031366;28;20943;-46
2021/09/26 05:22:48;;;;;;;6.73;5.50;;;;;;;;;;5031251;28;20509;-46
2021/09/26 05:25:14;;;;;;;7.10;6.40;;;;;;;;;;5030036;28;20939;-48
2021/09/26 05:27:40;;;;;;;11.10;6.47;;;;;;;;;;5031380;28;20384;-49
2021/09/26 05:30:09;;;;;;;12.27;6.00;;;;;;;;;;5031180;28;20884;-46
2021/09/26 05:32:36;;;;;;;8.60;6.43;;;;;;;;;;5030853;28;20425;-48
2021/09/26 05:35:02;;;;;;;6.50;5.90;;;;;;;;;;5034756;28;21000;-46
2021/09/26 05:37:28;;;;;;;6.27;5.77;;;;;;;;;;5034972;28;20860;-45
2021/09/26 05:39:54;;;;;;;6.83;5.73;;;;;;;;;;5034758;28;20418;-46
2021/09/26 05:42:20;;;;;;;7.20;5.83;;;;;;;;;;5034392;28;20967;-46
2021/09/26 05:44:46;;;;;;;7.53;6.13;;;;;;;;;;5034665;28;20384;-46
2021/09/26 05:47:14;;;;;;;6.43;5.83;;;;;;;;;;5034669;28;20384;-46
2021/09/26 05:49:41;;;;;;;6.60;5.90;;;;;;;;;;5034572;28;20383;-49
2021/09/26 05:52:08;;;;;;;6.53;5.63;;;;;;;;;;5034340;28;20424;-47
2021/09/26 05:54:35;;;;;;;6.57;5.97;;;;;;;;;;5034428;28;20436;-47
2021/09/26 05:57:01;;;;;;;26.60;7.43;;;;;;;;;;5034386;28;20389;-46
2021/09/26 05:59:27;;;;;;;7.43;6.30;;;;;;;;;;5034442;28;20414;-46
2021/09/26 06:01:53;;;;;;;7.40;6.70;;;;;;;;;;5033937;28;20463;-47
2021/09/26 06:04:19;;;;;;;10.73;6.37;;;;;;;;;;5034563;28;20426;-46
2021/09/26 06:06:45;;;;;;;6.73;6.03;;;;;;;;;;5034268;28;20399;-48
2021/09/26 06:09:11;;;;;;;7.27;6.63;;;;;;;;;;5034333;28;20410;-48
2021/09/26 06:11:37;;;;;;;12.20;7.20;;;;;;;;;;5034052;28;20433;-49
2021/09/26 06:14:03;;;;;;;6.80;6.00;;;;;;;;;;5033855;28;20440;-46
2021/09/26 06:16:29;;;;;;;7.53;6.07;;;;;;;;;;5033988;28;20440;-45
2021/09/26 06:18:55;;;;;;;7.80;7.10;;;;;;;;;;5034064;28;20380;-46
2021/09/26 06:21:21;;;;;;;6.57;5.93;;;;;;;;;;5033937;28;20895;-46
2021/09/26 06:23:47;;;;;;;7.30;6.20;;;;;;;;;;5033184;28;20782;-46
2021/09/26 06:26:14;;;;;;;7.50;6.40;;;;;;;;;;5033382;28;20412;-47
2021/09/26 06:28:40;;;;;;;6.60;5.40;;;;;;;;;;5033044;28;20426;-46
2021/09/26 06:31:06;;;;;;;7.20;6.50;;;;;;;;;;5033137;28;20472;-47
2021/09/26 06:33:32;;;;;;;8.83;6.07;;;;;;;;;;5032940;28;20458;-46
2021/09/26 06:35:58;;;;;;;7.50;5.70;;;;;;;;;;5033136;28;20398;-46
2021/09/26 06:38:24;;;;;;;7.83;6.40;;;;;;;;;;5033241;28;20503;-46
2021/09/26 06:40:50;;;;;;;6.60;6.00;;;;;;;;;;5032804;28;20585;-46
2021/09/26 06:43:16;;;;;;;7.40;6.60;;;;;;;;;;5032878;28;20395;-46
2021/09/26 06:45:42;;;;;;;8.87;6.47;;;;;;;;;;5032540;28;20473;-47
2021/09/26 06:48:08;;;;;;;11.00;6.50;;;;;;;;;;5033218;28;20853;-46
2021/09/26 06:50:34;;;;;;;10.03;6.43;;;;;;;;;;5032725;28;20493;-51
2021/09/26 06:53:00;;;;;;;6.30;5.80;;;;;;;;;;5032859;28;20986;-49
2021/09/26 06:55:26;;;;;;;6.90;6.20;;;;;;;;;;5032930;28;20461;-48
2021/09/26 06:57:52;;;;;;;7.17;6.57;;;;;;;;;;5032617;28;20408;-49
2021/09/26 07:00:18;;;;;;;9.43;6.50;;;;;;;;;;5032747;28;20759;-47
2021/09/26 07:02:44;;;;;;;7.20;6.50;;;;;;;;;;5032171;28;20429;-46
2021/09/26 07:05:11;;;;;;;9.10;5.30;;;;;;;;;;5032714;28;20402;-47
2021/09/26 07:07:37;;;;;;;5.00;4.60;;;;;;;;;;5032416;28;20500;-47
2021/09/26 07:10:04;;;;;;;15.20;5.90;;;;;;;;;;5032588;28;20890;-47
2021/09/26 07:12:30;;;;;;;6.63;5.63;;;;;;;;;;5032254;28;20917;-46
2021/09/26 07:15:00;;;;;;;6.40;5.90;;;;;;;;;;5032123;28;20474;-47
2021/09/26 07:17:26;;;;;;;6.80;5.70;;;;;;;;;;5032441;28;20409;-46
2021/09/26 07:19:52;;;;;;;5.03;4.63;;;;;;;;;;5032276;28;20488;-46
2021/09/26 07:22:23;;;;;;;9.13;5.67;;;;;;;;;;5032089;28;20949;-47
2021/09/26 07:24:49;;;;;;;7.13;6.10;;;;;;;;;;5032178;28;20406;-46
2021/09/26 07:27:17;;;;;;;6.63;6.03;;;;;;;;;;5032096;28;20413;-46
2021/09/26 07:29:43;;;;;;;7.33;6.53;;;;;;;;;;5031980;28;20410;-46
2021/09/26 07:32:11;;;;;;;6.57;5.97;;;;;;;;;;5031822;28;20433;-46
2021/09/26 07:34:37;;;;;;;6.07;5.57;;;;;;;;;;5031927;28;20548;-48
2021/09/26 07:37:03;;;;;;;7.03;6.20;;;;;;;;;;5032163;28;20505;-49
2021/09/26 07:39:28;;;;;;;6.40;5.90;;;;;;;;;;5032110;28;20398;-47
2021/09/26 07:41:54;;;;;;;8.60;5.73;;;;;;;;;;5031514;28;20476;-46
2021/09/26 07:44:20;;;;;;;5.63;5.23;;;;;;;;;;5032066;28;20438;-47
2021/09/26 07:46:46;;;;;;;8.37;5.80;;;;;;;;;;5031795;28;20461;-46
2021/09/26 07:49:12;;;;;;;6.07;5.57;;;;;;;;;;5031839;28;20954;-46
2021/09/26 07:51:38;;;;;;;6.00;5.47;;;;;;;;;;5031461;28;20501;-54
2021/09/26 07:54:04;;;;;;;6.60;6.00;;;;;;;;;;5031440;28;20921;-46
2021/09/26 07:56:31;;;;;;;6.00;5.43;;;;;;;;;;5031167;28;20408;-46
2021/09/26 07:58:57;;;;;;;6.67;6.00;;;;;;;;;;5031553;28;20460;-46
2021/09/26 08:01:23;;;;;;;8.77;6.20;;;;;;;;;;5031657;28;20410;-46
2021/09/26 08:03:49;;;;;;;6.83;6.10;;;;;;;;;;5030205;28;20442;-46
2021/09/26 08:06:18;;;;;;;6.80;6.03;;;;;;;;;;5031374;28;20897;-47
2021/09/26 08:08:44;;;;;;;5.60;5.10;;;;;;;;;;5031222;28;20418;-47
2021/09/26 08:11:10;;;;;;;6.77;5.87;;;;;;;;;;5031825;28;20406;-46
2021/09/26 08:13:36;;;;;;;7.23;5.80;;;;;;;;;;5030906;28;20464;-46
2021/09/26 08:16:02;;;;;;;7.37;6.87;;;;;;;;;;5031131;28;20513;-46
2021/09/26 08:18:28;;;;;;;6.67;6.07;;;;;;;;;;5031198;28;20413;-47
2021/09/26 08:20:54;;;;;;;13.07;6.60;;;;;;;;;;5030284;28;20406;-47
2021/09/26 08:23:20;;;;;;;6.37;5.77;;;;;;;;;;5029562;28;20419;-47
2021/09/26 08:25:46;;;;;;;6.90;6.20;;;;;;;;;;5030794;28;20742;-47
2021/09/26 08:28:13;;;;;;;7.10;6.50;;;;;;;;;;5031619;28;20834;-47
2021/09/26 08:30:40;;;;;;;10.77;7.30;;;;;;;;;;5031798;28;20399;-46
2021/09/26 08:33:06;;;;;;;7.30;6.67;;;;;;;;;;5031211;28;20967;-46
2021/09/26 08:35:32;;;;;;;7.27;6.70;;;;;;;;;;5031685;28;20402;-46
2021/09/26 08:37:58;;;;;;;7.90;7.10;;;;;;;;;;5031741;28;20815;-46
2021/09/26 08:40:24;;;;;;;8.73;6.23;;;;;;;;;;5031933;28;20818;-45
2021/09/26 08:42:51;;;;;;;6.70;6.10;;;;;;;;;;5031354;28;20426;-46
2021/09/26 08:45:18;;;;;;;7.87;6.57;;;;;;;;;;5031684;28;20406;-49
2021/09/26 08:47:44;;;;;;;7.07;6.37;;;;;;;;;;5030412;28;20417;-46
2021/09/26 08:50:12;;;;;;;7.53;6.20;;;;;;;;;;5031852;28;20414;-46
2021/09/26 08:52:40;;;;;;;7.00;6.40;;;;;;;;;;5031302;28;20414;-46
2021/09/26 08:55:07;;;;;;;7.47;6.80;;;;;;;;;;5031486;28;20813;-47
2021/09/26 08:57:33;;;;;;;10.00;7.23;;;;;;;;;;5031771;28;20406;-46
2021/09/26 08:59:59;;;;;;;7.40;5.80;;;;;;;;;;5031607;28;20428;-47
2021/09/26 09:02:25;;;;;;;7.77;5.70;;;;;;;;;;5031169;28;20421;-48
2021/09/26 09:04:51;;;;;;;5.90;5.30;;;;;;;;;;5031454;28;20956;-46
2021/09/26 09:07:17;;;;;;;6.53;5.70;;;;;;;;;;5031444;28;20453;-47
2021/09/26 09:09:47;;;;;;;8.43;5.90;;;;;;;;;;5035056;28;20433;-47
2021/09/26 09:12:13;;;;;;;6.83;6.13;;;;;;;;;;5034930;28;20535;-49
2021/09/26 09:14:54;;;;;;;6.00;4.40;;;;;;;;;;5035157;28;20457;-47
2021/09/26 09:17:29;;;;;;;6.20;4.93;;;;;;;;;;5035235;28;20794;-46
2021/09/26 09:20:14;;;;;;;7.87;5.80;;;;;;;;;;5035027;28;20432;-47
2021/09/26 09:22:41;;;;;;;7.40;6.00;;;;;;;;;;5034659;28;21007;-46
2021/09/26 09:25:07;;;;;;;7.13;6.47;;;;;;;;;;5035052;28;20394;-47
2021/09/26 09:27:33;;;;;;;8.13;5.20;;;;;;;;;;5035069;28;20401;-47
2021/09/26 09:30:01;;;;;;;6.60;5.90;;;;;;;;;;5034927;28;20433;-46
2021/09/26 09:32:29;;;;;;;5.63;5.13;;;;;;;;;;5034472;28;20452;-46
2021/09/26 09:34:54;;;;;;;6.40;5.70;;;;;;;;;;5034748;28;20834;-47
2021/09/26 09:37:22;;;;;;;6.87;6.17;;;;;;;;;;5034843;28;20914;-48
2021/09/26 09:40:06;;;;;;;6.83;5.60;;;;;;;;;;5034832;28;20405;-46
2021/09/26 09:42:43;;;;;;;9.50;6.20;;;;;;;;;;5034416;28;20422;-46
2021/09/26 09:45:22;;;;;;;7.30;5.60;;;;;;;;;;5034649;28;20410;-49
2021/09/26 09:48:17;;;;;;;6.83;5.17;;;;;;;;;;5034604;28;20456;-46
2021/09/26 09:50:49;;;;;;;8.87;5.47;;;;;;;;;;5033217;28;20410;-49
2021/09/26 09:53:21;;;;;;;6.43;5.73;;;;;;;;;;5034029;28;20422;-48
2021/09/26 09:55:55;;;;;;;9.73;6.00;;;;;;;;;;5034403;28;20816;-46
2021/09/26 09:58:21;;;;;;;6.80;6.13;;;;;;;;;;5034219;28;20668;-47
2021/09/26 10:00:52;;;;;;;5.80;5.33;;;;;;;;;;5032877;28;20418;-47
2021/09/26 10:03:34;;;;;;;7.70;6.40;;;;;;;;;;5032438;28;20444;-50
2021/09/26 10:06:02;;;;;;;6.57;5.83;;;;;;;;;;5033637;28;20402;-46
2021/09/26 10:08:32;;;;;;;6.60;6.10;;;;;;;;;;5034263;28;20720;-46
2021/09/26 10:11:05;;;;;;;6.80;6.20;;;;;;;;;;5034113;28;20410;-46
2021/09/26 10:13:31;;;;;;;6.10;5.50;;;;;;;;;;5033816;28;20449;-46
2021/09/26 10:15:57;;;;;;;7.03;6.43;;;;;;;;;;5033981;28;20452;-47
2021/09/26 10:18:23;;;;;;;7.80;5.80;;;;;;;;;;5033760;28;20897;-47
2021/09/26 10:20:49;;;;;;;6.17;5.23;;;;;;;;;;5033680;28;20477;-48
2021/09/26 10:23:16;;;;;;;7.83;5.37;;;;;;;;;;5034203;28;20422;-48
2021/09/26 10:25:42;;;;;;;6.27;5.77;;;;;;;;;;5033920;28;20406;-46
2021/09/26 10:28:08;;;;;;;5.50;5.00;;;;;;;;;;5033911;28;20414;-47
2021/09/26 10:30:34;;;;;;;6.83;6.13;;;;;;;;;;5033663;28;20429;-48
2021/09/26 10:33:00;;;;;;;6.07;5.57;;;;;;;;;;5033408;28;20418;-50
2021/09/26 10:35:26;;;;;;;5.87;5.37;;;;;;;;;;5033694;28;20454;-51
2021/09/26 10:37:54;;;;;;;6.30;5.40;;;;;;;;;;5034431;28;20406;-49
2021/09/26 10:40:20;;;;;;;6.20;5.53;;;;;;;;;;5033684;28;20497;-46
2021/09/26 10:42:47;;;;;;;8.27;6.07;;;;;;;;;;5033301;28;20422;-47
2021/09/26 10:45:23;;;;;;;6.37;5.73;;;;;;;;;;5033632;28;20945;-47
2021/09/26 10:47:53;;;;;;;5.60;5.10;;;;;;;;;;5033557;28;20397;-50
2021/09/26 10:50:19;;;;;;;6.83;5.67;;;;;;;;;;5033473;28;20443;-49
2021/09/26 10:52:47;;;;;;;6.43;5.93;;;;;;;;;;5033054;28;20422;-47
2021/09/26 10:55:19;;;;;;;5.37;4.53;;;;;;;;;;5032338;28;20799;-47
2021/09/26 10:58:05;;;;;;;5.70;5.07;;;;;;;;;;5033140;28;20435;-47
2021/09/26 11:00:34;;;;;;;5.67;4.50;;;;;;;;;;5032517;28;20410;-47
2021/09/26 11:03:10;;;;;;;5.37;3.73;;;;;;;;;;5031499;28;20460;-49
2021/09/26 11:05:37;;;;;;;3.73;3.43;;;;;;;;;;5031947;28;20414;-49
2021/09/26 11:08:05;;;;;;;4.30;3.10;;;;;;;;;;5032418;28;20402;-49
2021/09/26 11:10:35;;;;;;;5.93;3.63;;;;;;;;;;5031445;28;20455;-48
2021/09/26 11:13:08;;;;;;;5.53;3.13;;;;;;;;;;5032372;28;20462;-46
2021/09/26 11:15:34;;;;;;;3.37;3.07;;;;;;;;;;5032733;28;20549;-47
2021/09/26 11:18:00;;;;;;;3.77;3.03;;;;;;;;;;5032906;28;20490;-47
2021/09/26 11:20:26;;;;;;;5.00;2.70;;;;;;;;;;5033273;28;20417;-47
2021/09/26 11:23:08;;;;;;;4.70;3.60;;;;;;;;;;5032334;28;20422;-48
2021/09/26 11:25:54;;;;;;;4.07;2.87;;;;;;;;;;5032733;28;20398;-48
2021/09/26 11:28:35;;;;;;;3.07;2.87;;;;;;;;;;5032109;28;20475;-47
2021/09/26 11:31:03;;;;;;;4.13;3.00;;;;;;;;;;5031521;28;20984;-50
2021/09/26 11:33:48;;;;;;;2.87;2.67;;;;;;;;;;5032268;28;20461;-47
2021/09/26 11:36:18;;;;;;;4.10;3.07;;;;;;;;;;5032463;28;20408;-47
2021/09/26 11:38:44;;;;;;;3.30;2.83;;;;;;;;;;5032510;28;20390;-49
2021/09/26 11:41:10;;;;;;;4.63;3.10;;;;;;;;;;5032373;28;20403;-52
2021/09/26 11:43:56;;;;;;;3.90;2.93;;;;;;;;;;5030918;28;20793;-47
2021/09/26 11:46:24;;;;;;;3.27;2.97;;;;;;;;;;5031154;28;20894;-47
2021/09/26 11:48:50;;;;;;;2.80;2.60;;;;;;;;;;5032451;28;20456;-48
2021/09/26 11:51:17;;;;;;;3.30;3.00;;;;;;;;;;5032224;28;20453;-47
2021/09/26 11:53:44;;;;;;;3.27;2.97;;;;;;;;;;5031881;28;20906;-47
2021/09/26 11:56:18;;;;;;;3.10;2.80;;;;;;;;;;5032019;28;20426;-47
2021/09/26 11:58:43;;;;;;;5.73;3.80;;;;;;;;;;5032201;28;20477;-47
2021/09/26 12:01:10;;;;;;;4.67;3.10;;;;;;;;;;5032038;28;20498;-47
2021/09/26 12:03:36;;;;;;;3.60;3.30;;;;;;;;;;5031799;28;20426;-47
2021/09/26 12:06:02;;;;;;;3.43;3.23;;;;;;;;;;5032053;28;20497;-46
2021/09/26 12:08:42;;;;;;;3.93;3.17;;;;;;;;;;5031923;28;20406;-46
2021/09/26 12:11:09;;;;;;;5.50;3.70;;;;;;;;;;5031963;28;20410;-47
2021/09/26 12:13:46;;;;;;;5.37;3.80;;;;;;;;;;5031625;28;20490;-47
2021/09/26 12:16:12;;;;;;;5.73;4.13;;;;;;;;;;5031811;28;20479;-47
2021/09/26 12:18:38;;;;;;;3.70;3.50;;;;;;;;;;5031866;28;20395;-47
2021/09/26 12:21:05;;;;;;;4.83;4.43;;;;;;;;;;5031714;28;20493;-47
2021/09/26 12:23:50;;;;;;;3.97;3.37;;;;;;;;;;5031565;28;20418;-47
2021/09/26 12:26:20;;;;;;;5.50;3.27;;;;;;;;;;5031873;28;20398;-50
2021/09/26 12:28:46;;;;;;;4.50;3.70;;;;;;;;;;5031911;28;20398;-49
2021/09/26 12:31:12;;;;;;;3.57;3.27;;;;;;;;;;5031704;28;20394;-48
2021/09/26 12:33:43;;;;;;;3.70;3.40;;;;;;;;;;5031340;28;20504;-50
2021/09/26 12:36:13;;;;;;;3.70;2.97;;;;;;;;;;5031970;28;20826;-47
2021/09/26 12:38:41;;;;;;;5.13;4.00;;;;;;;;;;5031964;28;20397;-48
2021/09/26 12:41:07;;;;;;;4.60;3.50;;;;;;;;;;5031620;28;20413;-48
2021/09/26 12:43:36;;;;;;;5.73;3.40;;;;;;;;;;5034777;28;20426;-50
2021/09/26 12:46:05;;;;;;;5.13;4.00;;;;;;;;;;5035800;28;20175;-47
2021/09/26 12:48:32;;;;;;;4.17;3.87;;;;;;;;;;5035759;28;20458;-47
2021/09/26 12:51:02;;;;;;;4.47;3.30;;;;;;;;;;5035640;28;20448;-47
2021/09/26 12:53:30;;;;;;;7.20;3.60;;;;;;;;;;5035337;28;20937;-48
2021/09/26 12:55:57;;;;;;;4.60;3.87;;;;;;;;;;5035657;28;20402;-49
2021/09/26 12:58:31;;;;;;;5.10;3.97;;;;;;;;;;5035633;28;20428;-47
2021/09/26 13:01:16;;;;;;;8.13;3.67;;;;;;;;;;5035485;28;20451;-47
2021/09/26 13:03:54;;;;;;;4.20;3.80;;;;;;;;;;5034023;28;21019;-46
2021/09/26 13:06:28;;;;;;;4.20;3.50;;;;;;;;;;5035467;28;20404;-47
2021/09/26 13:08:54;;;;;;;6.73;3.30;;;;;;;;;;5035319;28;20992;-47
2021/09/26 13:11:26;;;;;;;6.77;3.63;;;;;;;;;;5035190;28;20398;-46
2021/09/26 13:14:12;;;;;;;7.40;3.07;;;;;;;;;;5034964;28;20965;-47
2021/09/26 13:16:41;;;;;;;4.07;2.73;;;;;;;;;;5035169;28;20840;-47
2021/09/26 13:19:22;;;;;;;5.00;3.13;;;;;;;;;;5035163;28;20914;-49
2021/09/26 13:22:00;;;;;;;5.10;3.07;;;;;;;;;;5035014;28;20457;-47
2021/09/26 13:24:26;;;;;;;4.60;3.30;;;;;;;;;;5034741;28;20726;-47
2021/09/26 13:26:52;;;;;;;4.23;3.00;;;;;;;;;;5033547;28;20406;-48
2021/09/26 13:29:29;;;;;;;6.03;3.20;;;;;;;;;;5034510;28;20421;-48
2021/09/26 13:31:57;;;;;;;3.70;3.40;;;;;;;;;;5034220;28;20464;-47
2021/09/26 13:34:28;;;;;;;6.33;3.43;;;;;;;;;;5034762;28;21027;-46
2021/09/26 13:36:58;;;;;;;4.37;3.97;;;;;;;;;;5034783;28;20402;-47
2021/09/26 13:39:36;;;;;;;6.53;3.23;;;;;;;;;;5034830;28;20826;-47
2021/09/26 13:42:07;;;;;;;11.53;3.80;;;;;;;;;;5034424;28;20410;-47
2021/09/26 13:44:33;;;;;;;4.97;3.60;;;;;;;;;;5034577;28;20406;-47
2021/09/26 13:46:59;;;;;;;9.40;4.00;;;;;;;;;;5034624;28;20494;-49
2021/09/26 13:49:25;;;;;;;6.67;3.47;;;;;;;;;;5034540;28;20409;-46
2021/09/26 13:51:51;;;;;;;4.30;3.90;;;;;;;;;;5034139;28;20843;-46
2021/09/26 13:54:17;;;;;;;11.57;4.57;;;;;;;;;;5033492;28;20449;-46
2021/09/26 13:56:43;;;;;;;6.70;4.60;;;;;;;;;;5034484;28;20898;-46
2021/09/26 13:59:10;;;;;;;10.30;3.83;;;;;;;;;;5034279;28;20412;-46
2021/09/26 14:01:36;;;;;;;6.87;3.27;;;;;;;;;;5034245;28;20876;-46
2021/09/26 14:04:03;;;;;;;6.63;4.20;;;;;;;;;;5034208;28;20475;-46
2021/09/26 14:06:29;;;;;;;3.50;3.20;;;;;;;;;;5034125;28;20500;-46
2021/09/26 14:08:55;;;;;;;5.93;3.50;;;;;;;;;;5034671;28;20923;-47
2021/09/26 14:11:23;;;;;;;4.50;3.27;;;;;;;;;;5034146;28;20491;-47
2021/09/26 14:13:49;;;;;;;4.90;3.57;;;;;;;;;;5033727;28;20478;-46
2021/09/26 14:16:15;;;;;;;4.30;3.43;;;;;;;;;;5034040;28;20419;-46
2021/09/26 14:18:42;;;;;;;5.00;3.93;;;;;;;;;;5034072;28;20438;-46
2021/09/26 14:21:08;;;;;;;6.50;3.37;;;;;;;;;;5034003;28;20912;-46
2021/09/26 14:23:35;;;;;;;7.60;3.47;;;;;;;;;;5033685;28;20427;-49
2021/09/26 14:26:01;;;;;;;6.70;3.73;;;;;;;;;;5033816;28;20395;-47
2021/09/26 14:28:29;;;;;;;5.67;3.90;;;;;;;;;;5033979;28;20402;-46
2021/09/26 14:30:55;;;;;;;8.23;3.83;;;;;;;;;;5033796;28;20434;-50
2021/09/26 14:33:21;;;;;;;4.67;4.03;;;;;;;;;;5033417;28;20461;-46
2021/09/26 14:35:47;;;;;;;7.03;4.60;;;;;;;;;;5033751;28;20449;-46
2021/09/26 14:38:13;;;;;;;4.50;3.10;;;;;;;;;;5033793;28;20457;-46
2021/09/26 14:40:39;;;;;;;4.47;3.53;;;;;;;;;;5033609;28;20398;-46
2021/09/26 14:43:05;;;;;;;3.70;3.40;;;;;;;;;;5033324;28;20517;-47
2021/09/26 14:45:32;;;;;;;6.73;3.70;;;;;;;;;;5033536;28;20481;-46